Terminal Aerodrome Forecast
Issued by NWS

Current Version | Previous Version | Text Only | Print | Product List | Glossary On
Versions: 1 2 3 4 5 6 7 8 9 10 11 12 13
000
FTUS44 KBMX 250645 AAA
TAFEET
TAF AMD
KEET 250645Z 2507/2606 13007KT P6SM SHRA VCTS SCT020 BKN035CB
      OVC100
      TEMPO 2509/2513 16010G20KT 3SM TSRA BKN020 OVC035CB
     FM251500 23012KT P6SM VCTS BKN025CB
     FM260000 21007KT P6SM SCT150=

USA.gov is the U.S. government's official web portal to all federal, state and local government web resources and services.